sensor_id;sensor_type;location;lat;lon;timestamp;P1;durP1;ratioP1;P2;durP2;ratioP2
51985;SDS011;38002;53.296;6.600;2022-11-20T00:04:53;15.68;;;8.98;;
51985;SDS011;38002;53.296;6.600;2022-11-20T00:09:53;15.13;;;9.18;;
51985;SDS011;38002;53.296;6.600;2022-11-20T00:14:54;11.48;;;8.15;;
51985;SDS011;38002;53.296;6.600;2022-11-20T00:19:54;13.88;;;8.77;;
51985;SDS011;38002;53.296;6.600;2022-11-20T00:24:54;14.57;;;9.02;;
51985;SDS011;38002;53.296;6.600;2022-11-20T00:29:57;12.00;;;7.75;;
51985;SDS011;38002;53.296;6.600;2022-11-20T00:34:57;15.55;;;9.68;;
51985;SDS011;38002;53.296;6.600;2022-11-20T00:39:58;11.90;;;7.38;;
51985;SDS011;38002;53.296;6.600;2022-11-20T00:44:58;14.88;;;9.05;;
51985;SDS011;38002;53.296;6.600;2022-11-20T00:49:58;12.30;;;7.80;;
51985;SDS011;38002;53.296;6.600;2022-11-20T00:54:59;13.80;;;7.78;;
51985;SDS011;38002;53.296;6.600;2022-11-20T00:59:59;14.07;;;8.80;;
51985;SDS011;38002;53.296;6.600;2022-11-20T01:05:00;11.85;;;7.65;;
51985;SDS011;38002;53.296;6.600;2022-11-20T01:10:00;14.55;;;8.02;;
51985;SDS011;38002;53.296;6.600;2022-11-20T01:15:00;11.65;;;7.85;;
51985;SDS011;38002;53.296;6.600;2022-11-20T01:20:01;14.02;;;9.30;;
51985;SDS011;38002;53.296;6.600;2022-11-20T01:25:01;15.20;;;9.10;;
51985;SDS011;38002;53.296;6.600;2022-11-20T01:30:02;15.98;;;8.55;;
51985;SDS011;38002;53.296;6.600;2022-11-20T01:35:02;14.98;;;8.85;;
51985;SDS011;38002;53.296;6.600;2022-11-20T01:40:03;12.75;;;8.70;;
51985;SDS011;38002;53.296;6.600;2022-11-20T01:51:02;13.88;;;8.50;;
51985;SDS011;38002;53.296;6.600;2022-11-20T01:56:05;12.55;;;8.30;;
51985;SDS011;38002;53.296;6.600;2022-11-20T02:01:10;14.25;;;8.23;;
51985;SDS011;38002;53.296;6.600;2022-11-20T02:06:12;13.77;;;8.63;;
51985;SDS011;38002;53.296;6.600;2022-11-20T02:11:19;14.25;;;8.43;;
51985;SDS011;38002;53.296;6.600;2022-11-20T02:27:04;18.73;;;9.00;;
51985;SDS011;38002;53.296;6.600;2022-11-20T02:32:22;12.85;;;8.05;;
51985;SDS011;38002;53.296;6.600;2022-11-20T02:37:31;13.73;;;8.70;;
51985;SDS011;38002;53.296;6.600;2022-11-20T02:42:35;14.55;;;8.75;;
51985;SDS011;38002;53.296;6.600;2022-11-20T02:47:36;13.30;;;7.40;;
51985;SDS011;38002;53.296;6.600;2022-11-20T02:52:36;11.38;;;7.95;;
51985;SDS011;38002;53.296;6.600;2022-11-20T02:57:37;16.65;;;8.55;;
51985;SDS011;38002;53.296;6.600;2022-11-20T03:02:37;13.60;;;8.68;;
51985;SDS011;38002;53.296;6.600;2022-11-20T03:07:37;14.00;;;8.27;;
51985;SDS011;38002;53.296;6.600;2022-11-20T03:12:38;14.88;;;9.05;;
51985;SDS011;38002;53.296;6.600;2022-11-20T03:17:38;15.10;;;10.10;;
51985;SDS011;38002;53.296;6.600;2022-11-20T03:22:39;14.63;;;8.43;;
51985;SDS011;38002;53.296;6.600;2022-11-20T03:27:39;15.18;;;9.32;;
51985;SDS011;38002;53.296;6.600;2022-11-20T03:32:40;14.82;;;9.73;;
51985;SDS011;38002;53.296;6.600;2022-11-20T03:37:40;12.43;;;8.75;;
51985;SDS011;38002;53.296;6.600;2022-11-20T03:42:41;12.82;;;8.40;;
51985;SDS011;38002;53.296;6.600;2022-11-20T03:47:47;17.05;;;9.30;;
51985;SDS011;38002;53.296;6.600;2022-11-20T03:52:50;17.60;;;9.25;;
51985;SDS011;38002;53.296;6.600;2022-11-20T03:57:50;12.10;;;8.27;;
51985;SDS011;38002;53.296;6.600;2022-11-20T04:02:51;16.77;;;9.50;;
51985;SDS011;38002;53.296;6.600;2022-11-20T04:07:51;14.15;;;8.90;;
51985;SDS011;38002;53.296;6.600;2022-11-20T04:12:52;15.05;;;8.77;;
51985;SDS011;38002;53.296;6.600;2022-11-20T04:17:53;15.93;;;8.43;;
51985;SDS011;38002;53.296;6.600;2022-11-20T04:22:54;13.90;;;8.88;;
51985;SDS011;38002;53.296;6.600;2022-11-20T04:27:54;12.52;;;7.90;;
51985;SDS011;38002;53.296;6.600;2022-11-20T04:32:55;12.65;;;8.48;;
51985;SDS011;38002;53.296;6.600;2022-11-20T04:37:55;11.07;;;7.95;;
51985;SDS011;38002;53.296;6.600;2022-11-20T04:42:56;12.68;;;8.07;;
51985;SDS011;38002;53.296;6.600;2022-11-20T04:47:56;13.38;;;8.15;;
51985;SDS011;38002;53.296;6.600;2022-11-20T04:52:56;13.50;;;8.90;;
51985;SDS011;38002;53.296;6.600;2022-11-20T04:57:57;14.05;;;9.02;;
51985;SDS011;38002;53.296;6.600;2022-11-20T05:02:58;13.75;;;8.80;;
51985;SDS011;38002;53.296;6.600;2022-11-20T05:07:59;9.73;;;6.90;;
51985;SDS011;38002;53.296;6.600;2022-11-20T05:12:59;14.07;;;8.55;;
51985;SDS011;38002;53.296;6.600;2022-11-20T05:18:00;12.02;;;7.88;;
51985;SDS011;38002;53.296;6.600;2022-11-20T05:23:00;10.75;;;7.55;;
51985;SDS011;38002;53.296;6.600;2022-11-20T05:28:00;11.10;;;7.57;;
51985;SDS011;38002;53.296;6.600;2022-11-20T05:33:01;12.95;;;8.10;;
51985;SDS011;38002;53.296;6.600;2022-11-20T05:38:01;9.35;;;7.35;;
51985;SDS011;38002;53.296;6.600;2022-11-20T05:43:02;11.05;;;7.90;;
51985;SDS011;38002;53.296;6.600;2022-11-20T05:48:03;11.40;;;7.45;;
51985;SDS011;38002;53.296;6.600;2022-11-20T05:53:03;10.20;;;6.72;;
51985;SDS011;38002;53.296;6.600;2022-11-20T05:58:03;12.18;;;7.43;;
51985;SDS011;38002;53.296;6.600;2022-11-20T06:03:04;10.52;;;6.93;;
51985;SDS011;38002;53.296;6.600;2022-11-20T06:08:04;12.30;;;7.50;;
51985;SDS011;38002;53.296;6.600;2022-11-20T06:13:05;13.50;;;7.90;;
51985;SDS011;38002;53.296;6.600;2022-11-20T06:18:05;11.25;;;7.38;;
51985;SDS011;38002;53.296;6.600;2022-11-20T06:23:05;12.00;;;7.68;;
51985;SDS011;38002;53.296;6.600;2022-11-20T06:28:06;12.30;;;6.40;;
51985;SDS011;38002;53.296;6.600;2022-11-20T06:33:07;11.30;;;7.28;;
51985;SDS011;38002;53.296;6.600;2022-11-20T06:38:07;9.88;;;6.25;;
51985;SDS011;38002;53.296;6.600;2022-11-20T06:43:10;11.10;;;7.40;;
51985;SDS011;38002;53.296;6.600;2022-11-20T06:48:11;12.02;;;7.28;;
51985;SDS011;38002;53.296;6.600;2022-11-20T06:53:11;12.35;;;7.07;;
51985;SDS011;38002;53.296;6.600;2022-11-20T06:58:13;13.27;;;7.50;;
51985;SDS011;38002;53.296;6.600;2022-11-20T07:03:14;9.75;;;6.55;;
51985;SDS011;38002;53.296;6.600;2022-11-20T07:08:14;9.98;;;6.85;;
51985;SDS011;38002;53.296;6.600;2022-11-20T07:13:15;11.43;;;6.68;;
51985;SDS011;38002;53.296;6.600;2022-11-20T07:18:15;10.25;;;6.90;;
51985;SDS011;38002;53.296;6.600;2022-11-20T07:23:16;11.15;;;6.18;;
51985;SDS011;38002;53.296;6.600;2022-11-20T07:28:16;13.68;;;8.02;;
51985;SDS011;38002;53.296;6.600;2022-11-20T07:33:16;11.88;;;7.82;;
51985;SDS011;38002;53.296;6.600;2022-11-20T07:38:17;10.25;;;6.80;;
51985;SDS011;38002;53.296;6.600;2022-11-20T07:43:17;11.07;;;7.55;;
51985;SDS011;38002;53.296;6.600;2022-11-20T07:48:18;13.05;;;7.32;;
51985;SDS011;38002;53.296;6.600;2022-11-20T07:53:18;10.68;;;7.30;;
51985;SDS011;38002;53.296;6.600;2022-11-20T07:58:21;13.00;;;8.27;;
51985;SDS011;38002;53.296;6.600;2022-11-20T08:03:21;12.17;;;7.00;;
51985;SDS011;38002;53.296;6.600;2022-11-20T08:08:22;13.23;;;8.18;;
51985;SDS011;38002;53.296;6.600;2022-11-20T08:13:22;10.55;;;7.65;;
51985;SDS011;38002;53.296;6.600;2022-11-20T08:18:41;13.63;;;7.95;;
51985;SDS011;38002;53.296;6.600;2022-11-20T08:23:42;11.30;;;7.93;;
51985;SDS011;38002;53.296;6.600;2022-11-20T08:28:42;12.45;;;8.15;;
51985;SDS011;38002;53.296;6.600;2022-11-20T08:33:44;10.07;;;7.10;;
51985;SDS011;38002;53.296;6.600;2022-11-20T08:38:51;15.00;;;8.52;;
51985;SDS011;38002;53.296;6.600;2022-11-20T08:43:57;15.43;;;9.60;;
51985;SDS011;38002;53.296;6.600;2022-11-20T08:48:59;11.68;;;7.45;;
51985;SDS011;38002;53.296;6.600;2022-11-20T08:54:00;12.23;;;7.90;;
51985;SDS011;38002;53.296;6.600;2022-11-20T08:59:00;12.63;;;7.28;;
51985;SDS011;38002;53.296;6.600;2022-11-20T09:04:01;13.18;;;8.32;;
51985;SDS011;38002;53.296;6.600;2022-11-20T09:09:01;13.50;;;7.57;;
51985;SDS011;38002;53.296;6.600;2022-11-20T09:14:02;10.57;;;6.72;;
51985;SDS011;38002;53.296;6.600;2022-11-20T09:19:03;12.10;;;7.45;;
51985;SDS011;38002;53.296;6.600;2022-11-20T09:24:04;12.70;;;8.00;;
51985;SDS011;38002;53.296;6.600;2022-11-20T09:29:05;11.17;;;7.20;;
51985;SDS011;38002;53.296;6.600;2022-11-20T09:34:05;9.93;;;7.15;;
51985;SDS011;38002;53.296;6.600;2022-11-20T09:39:06;12.52;;;7.13;;
51985;SDS011;38002;53.296;6.600;2022-11-20T09:49:40;11.35;;;7.18;;
51985;SDS011;38002;53.296;6.600;2022-11-20T09:54:48;12.32;;;7.55;;
51985;SDS011;38002;53.296;6.600;2022-11-20T09:59:59;19.33;;;10.63;;
51985;SDS011;38002;53.296;6.600;2022-11-20T10:10:22;16.95;;;10.73;;
51985;SDS011;38002;53.296;6.600;2022-11-20T10:31:43;16.30;;;11.02;;
51985;SDS011;38002;53.296;6.600;2022-11-20T10:36:55;14.40;;;9.27;;
51985;SDS011;38002;53.296;6.600;2022-11-20T10:41:58;15.85;;;8.48;;
51985;SDS011;38002;53.296;6.600;2022-11-20T10:47:00;12.82;;;7.95;;
51985;SDS011;38002;53.296;6.600;2022-11-20T11:02:33;9.77;;;6.93;;
51985;SDS011;38002;53.296;6.600;2022-11-20T11:07:39;11.40;;;7.57;;
51985;SDS011;38002;53.296;6.600;2022-11-20T11:12:43;15.57;;;9.23;;
51985;SDS011;38002;53.296;6.600;2022-11-20T11:17:46;11.38;;;7.85;;
51985;SDS011;38002;53.296;6.600;2022-11-20T11:22:49;8.43;;;6.63;;
51985;SDS011;38002;53.296;6.600;2022-11-20T11:27:50;11.82;;;7.03;;
51985;SDS011;38002;53.296;6.600;2022-11-20T11:33:02;9.73;;;5.38;;
51985;SDS011;38002;53.296;6.600;2022-11-20T11:38:23;8.85;;;6.43;;
51985;SDS011;38002;53.296;6.600;2022-11-20T11:43:32;12.63;;;7.50;;
51985;SDS011;38002;53.296;6.600;2022-11-20T11:48:56;11.27;;;7.13;;
51985;SDS011;38002;53.296;6.600;2022-11-20T11:53:58;9.90;;;6.35;;
51985;SDS011;38002;53.296;6.600;2022-11-20T11:59:00;11.18;;;7.03;;
51985;SDS011;38002;53.296;6.600;2022-11-20T12:09:42;10.60;;;6.55;;
51985;SDS011;38002;53.296;6.600;2022-11-20T12:14:48;12.90;;;6.88;;
51985;SDS011;38002;53.296;6.600;2022-11-20T12:19:52;11.02;;;7.05;;
51985;SDS011;38002;53.296;6.600;2022-11-20T12:30:16;9.45;;;6.53;;
51985;SDS011;38002;53.296;6.600;2022-11-20T12:46:37;8.75;;;6.43;;
51985;SDS011;38002;53.296;6.600;2022-11-20T12:51:51;10.18;;;5.63;;
51985;SDS011;38002;53.296;6.600;2022-11-20T13:07:43;6.90;;;4.28;;
51985;SDS011;38002;53.296;6.600;2022-11-20T13:12:45;5.85;;;4.38;;
51985;SDS011;38002;53.296;6.600;2022-11-20T13:17:57;6.93;;;5.55;;
51985;SDS011;38002;53.296;6.600;2022-11-20T13:23:00;5.88;;;3.80;;
51985;SDS011;38002;53.296;6.600;2022-11-20T13:28:03;5.47;;;3.67;;
51985;SDS011;38002;53.296;6.600;2022-11-20T13:38:27;4.88;;;4.13;;
51985;SDS011;38002;53.296;6.600;2022-11-20T13:43:41;4.93;;;4.45;;
51985;SDS011;38002;53.296;6.600;2022-11-20T14:04:48;4.72;;;3.90;;
51985;SDS011;38002;53.296;6.600;2022-11-20T14:09:51;5.80;;;4.13;;
51985;SDS011;38002;53.296;6.600;2022-11-20T14:14:56;8.02;;;3.95;;
51985;SDS011;38002;53.296;6.600;2022-11-20T14:19:58;5.72;;;4.10;;
51985;SDS011;38002;53.296;6.600;2022-11-20T14:30:16;6.63;;;3.80;;
51985;SDS011;38002;53.296;6.600;2022-11-20T14:35:25;3.95;;;3.63;;
51985;SDS011;38002;53.296;6.600;2022-11-20T14:40:32;6.20;;;4.03;;
51985;SDS011;38002;53.296;6.600;2022-11-20T14:45:37;6.18;;;4.63;;
51985;SDS011;38002;53.296;6.600;2022-11-20T14:50:38;7.45;;;4.50;;
51985;SDS011;38002;53.296;6.600;2022-11-20T14:55:39;5.65;;;4.43;;
51985;SDS011;38002;53.296;6.600;2022-11-20T15:00:40;8.80;;;5.07;;
51985;SDS011;38002;53.296;6.600;2022-11-20T15:05:45;6.53;;;3.92;;
51985;SDS011;38002;53.296;6.600;2022-11-20T15:10:49;7.25;;;4.47;;
51985;SDS011;38002;53.296;6.600;2022-11-20T15:20:52;6.28;;;4.22;;
51985;SDS011;38002;53.296;6.600;2022-11-20T15:25:54;6.88;;;5.50;;
51985;SDS011;38002;53.296;6.600;2022-11-20T15:30:55;8.05;;;5.70;;
51985;SDS011;38002;53.296;6.600;2022-11-20T15:35:56;7.18;;;5.32;;
51985;SDS011;38002;53.296;6.600;2022-11-20T15:40:57;7.75;;;4.68;;
51985;SDS011;38002;53.296;6.600;2022-11-20T15:46:01;7.50;;;5.70;;
51985;SDS011;38002;53.296;6.600;2022-11-20T15:56:11;7.47;;;5.53;;
51985;SDS011;38002;53.296;6.600;2022-11-20T16:01:13;7.80;;;6.03;;
51985;SDS011;38002;53.296;6.600;2022-11-20T16:06:18;11.48;;;6.93;;
51985;SDS011;38002;53.296;6.600;2022-11-20T16:11:19;8.30;;;6.10;;
51985;SDS011;38002;53.296;6.600;2022-11-20T16:16:23;8.55;;;6.25;;
51985;SDS011;38002;53.296;6.600;2022-11-20T16:21:28;9.40;;;6.40;;
51985;SDS011;38002;53.296;6.600;2022-11-20T16:26:33;7.78;;;5.88;;
51985;SDS011;38002;53.296;6.600;2022-11-20T16:31:34;8.33;;;5.90;;
51985;SDS011;38002;53.296;6.600;2022-11-20T16:36:34;8.98;;;6.47;;
51985;SDS011;38002;53.296;6.600;2022-11-20T16:41:35;9.32;;;6.85;;
51985;SDS011;38002;53.296;6.600;2022-11-20T16:46:36;9.13;;;5.43;;
51985;SDS011;38002;53.296;6.600;2022-11-20T16:51:37;7.63;;;5.50;;
51985;SDS011;38002;53.296;6.600;2022-11-20T16:56:38;11.05;;;7.07;;
51985;SDS011;38002;53.296;6.600;2022-11-20T17:01:38;8.45;;;5.47;;
51985;SDS011;38002;53.296;6.600;2022-11-20T17:06:41;8.25;;;5.85;;
51985;SDS011;38002;53.296;6.600;2022-11-20T17:11:47;7.68;;;5.93;;
51985;SDS011;38002;53.296;6.600;2022-11-20T17:16:48;9.23;;;6.53;;
51985;SDS011;38002;53.296;6.600;2022-11-20T17:21:48;11.68;;;6.25;;
51985;SDS011;38002;53.296;6.600;2022-11-20T17:26:49;7.47;;;5.40;;
51985;SDS011;38002;53.296;6.600;2022-11-20T17:31:49;7.95;;;5.70;;
51985;SDS011;38002;53.296;6.600;2022-11-20T17:36:50;11.13;;;7.07;;
51985;SDS011;38002;53.296;6.600;2022-11-20T17:41:51;10.40;;;7.05;;
51985;SDS011;38002;53.296;6.600;2022-11-20T17:47:09;10.05;;;7.57;;
51985;SDS011;38002;53.296;6.600;2022-11-20T17:52:11;14.63;;;8.98;;
51985;SDS011;38002;53.296;6.600;2022-11-20T17:57:11;10.07;;;6.80;;
51985;SDS011;38002;53.296;6.600;2022-11-20T18:02:30;8.90;;;6.10;;
51985;SDS011;38002;53.296;6.600;2022-11-20T18:07:30;9.52;;;6.65;;
51985;SDS011;38002;53.296;6.600;2022-11-20T18:12:31;13.13;;;7.20;;
51985;SDS011;38002;53.296;6.600;2022-11-20T18:17:31;14.70;;;7.43;;
51985;SDS011;38002;53.296;6.600;2022-11-20T18:22:32;12.05;;;7.43;;
51985;SDS011;38002;53.296;6.600;2022-11-20T18:27:32;11.60;;;7.25;;
51985;SDS011;38002;53.296;6.600;2022-11-20T18:32:33;11.73;;;6.95;;
51985;SDS011;38002;53.296;6.600;2022-11-20T18:37:35;10.57;;;7.80;;
51985;SDS011;38002;53.296;6.600;2022-11-20T18:42:35;12.80;;;7.60;;
51985;SDS011;38002;53.296;6.600;2022-11-20T18:47:54;11.70;;;7.25;;
51985;SDS011;38002;53.296;6.600;2022-11-20T18:52:55;12.25;;;7.50;;
51985;SDS011;38002;53.296;6.600;2022-11-20T18:57:55;11.55;;;7.20;;
51985;SDS011;38002;53.296;6.600;2022-11-20T19:02:56;11.77;;;7.80;;
51985;SDS011;38002;53.296;6.600;2022-11-20T19:07:56;11.45;;;7.72;;
51985;SDS011;38002;53.296;6.600;2022-11-20T19:12:57;11.23;;;7.75;;
51985;SDS011;38002;53.296;6.600;2022-11-20T19:17:58;11.65;;;6.93;;
51985;SDS011;38002;53.296;6.600;2022-11-20T19:23:00;10.70;;;7.93;;
51985;SDS011;38002;53.296;6.600;2022-11-20T19:28:00;14.52;;;8.23;;
51985;SDS011;38002;53.296;6.600;2022-11-20T19:33:01;12.82;;;8.02;;
51985;SDS011;38002;53.296;6.600;2022-11-20T19:38:01;12.00;;;8.32;;
51985;SDS011;38002;53.296;6.600;2022-11-20T19:43:02;17.00;;;9.52;;
51985;SDS011;38002;53.296;6.600;2022-11-20T19:48:03;12.25;;;7.47;;
51985;SDS011;38002;53.296;6.600;2022-11-20T19:53:03;13.68;;;9.30;;
51985;SDS011;38002;53.296;6.600;2022-11-20T19:58:04;14.40;;;10.02;;
51985;SDS011;38002;53.296;6.600;2022-11-20T20:03:04;14.80;;;9.50;;
51985;SDS011;38002;53.296;6.600;2022-11-20T20:08:05;18.30;;;9.10;;
51985;SDS011;38002;53.296;6.600;2022-11-20T20:13:05;13.43;;;9.15;;
51985;SDS011;38002;53.296;6.600;2022-11-20T20:18:06;15.13;;;9.60;;
51985;SDS011;38002;53.296;6.600;2022-11-20T20:23:07;14.82;;;9.38;;
51985;SDS011;38002;53.296;6.600;2022-11-20T20:28:07;12.90;;;8.88;;
51985;SDS011;38002;53.296;6.600;2022-11-20T20:33:08;13.70;;;9.23;;
51985;SDS011;38002;53.296;6.600;2022-11-20T20:38:08;14.05;;;8.30;;
51985;SDS011;38002;53.296;6.600;2022-11-20T20:43:09;12.43;;;8.88;;
51985;SDS011;38002;53.296;6.600;2022-11-20T20:48:09;11.27;;;7.22;;
51985;SDS011;38002;53.296;6.600;2022-11-20T20:53:09;17.25;;;9.10;;
51985;SDS011;38002;53.296;6.600;2022-11-20T20:58:10;16.88;;;9.45;;
51985;SDS011;38002;53.296;6.600;2022-11-20T21:03:10;13.85;;;9.27;;
51985;SDS011;38002;53.296;6.600;2022-11-20T21:08:11;13.65;;;8.00;;
51985;SDS011;38002;53.296;6.600;2022-11-20T21:13:20;13.48;;;9.48;;
51985;SDS011;38002;53.296;6.600;2022-11-20T21:23:23;16.50;;;9.93;;
51985;SDS011;38002;53.296;6.600;2022-11-20T21:28:24;15.63;;;9.40;;
51985;SDS011;38002;53.296;6.600;2022-11-20T21:33:24;15.90;;;10.40;;
51985;SDS011;38002;53.296;6.600;2022-11-20T21:38:24;15.30;;;9.50;;
51985;SDS011;38002;53.296;6.600;2022-11-20T21:43:25;16.67;;;10.13;;
51985;SDS011;38002;53.296;6.600;2022-11-20T21:48:29;16.92;;;10.32;;
51985;SDS011;38002;53.296;6.600;2022-11-20T21:53:31;19.17;;;10.30;;
51985;SDS011;38002;53.296;6.600;2022-11-20T21:58:32;19.75;;;10.13;;
51985;SDS011;38002;53.296;6.600;2022-11-20T22:03:33;17.35;;;10.60;;
51985;SDS011;38002;53.296;6.600;2022-11-20T22:08:34;16.38;;;10.10;;
51985;SDS011;38002;53.296;6.600;2022-11-20T22:13:36;14.57;;;9.05;;
51985;SDS011;38002;53.296;6.600;2022-11-20T22:18:55;20.13;;;11.10;;
51985;SDS011;38002;53.296;6.600;2022-11-20T22:23:57;18.55;;;10.43;;
51985;SDS011;38002;53.296;6.600;2022-11-20T22:28:58;16.88;;;10.55;;
51985;SDS011;38002;53.296;6.600;2022-11-20T22:34:00;19.58;;;10.40;;
51985;SDS011;38002;53.296;6.600;2022-11-20T22:39:01;16.05;;;9.98;;
51985;SDS011;38002;53.296;6.600;2022-11-20T22:44:04;16.20;;;10.00;;
51985;SDS011;38002;53.296;6.600;2022-11-20T22:49:06;19.58;;;10.50;;
51985;SDS011;38002;53.296;6.600;2022-11-20T22:54:09;14.10;;;8.93;;
51985;SDS011;38002;53.296;6.600;2022-11-20T22:59:10;17.85;;;10.65;;
51985;SDS011;38002;53.296;6.600;2022-11-20T23:04:11;17.17;;;10.68;;
51985;SDS011;38002;53.296;6.600;2022-11-20T23:09:12;15.10;;;9.75;;
51985;SDS011;38002;53.296;6.600;2022-11-20T23:14:13;17.80;;;10.68;;
51985;SDS011;38002;53.296;6.600;2022-11-20T23:19:14;17.13;;;10.23;;
51985;SDS011;38002;53.296;6.600;2022-11-20T23:24:15;19.73;;;10.45;;
51985;SDS011;38002;53.296;6.600;2022-11-20T23:29:15;17.75;;;10.63;;
51985;SDS011;38002;53.296;6.600;2022-11-20T23:34:16;17.23;;;10.13;;
51985;SDS011;38002;53.296;6.600;2022-11-20T23:39:16;21.17;;;10.90;;
51985;SDS011;38002;53.296;6.600;2022-11-20T23:44:17;20.02;;;11.57;;
51985;SDS011;38002;53.296;6.600;2022-11-20T23:49:17;17.85;;;11.43;;
51985;SDS011;38002;53.296;6.600;2022-11-20T23:54:17;19.13;;;10.35;;
51985;SDS011;38002;53.296;6.600;2022-11-20T23:59:18;16.30;;;11.32;;
